createdAt,value
2022-08-05T00:01:20.521Z,22.22
2022-08-05T00:04:00.035Z,22.15
2022-08-05T00:06:36.147Z,22.03
2022-08-05T00:09:12.841Z,21.98
2022-08-05T00:11:49.177Z,21.92
2022-08-05T00:14:29.283Z,21.84
2022-08-05T00:17:02.980Z,21.80
2022-08-05T00:19:45.585Z,21.79
2022-08-05T00:22:30.211Z,21.79
2022-08-05T00:25:02.322Z,21.79
2022-08-05T00:27:39.610Z,21.85
2022-08-05T00:30:15.159Z,21.72
2022-08-05T00:32:45.754Z,21.85
2022-08-05T00:35:17.360Z,21.68
2022-08-05T00:37:57.181Z,21.71
2022-08-05T00:40:29.540Z,21.76
2022-08-05T00:43:02.132Z,21.54
2022-08-05T00:45:38.325Z,21.57
2022-08-05T00:48:27.416Z,21.62
2022-08-05T00:51:09.042Z,21.41
2022-08-05T00:54:02.255Z,21.50
2022-08-05T00:56:36.901Z,21.29
2022-08-05T00:59:09.727Z,21.22
2022-08-05T01:01:48.645Z,21.35
2022-08-05T01:04:26.625Z,21.39
2022-08-05T01:07:02.513Z,21.28
2022-08-05T01:09:40.124Z,21.25
2022-08-05T01:12:23.112Z,21.10
2022-08-05T01:15:04.135Z,21.18
2022-08-05T01:17:44.184Z,21.25
2022-08-05T01:20:22.679Z,21.22
2022-08-05T01:23:15.196Z,21.19
2022-08-05T01:26:04.903Z,21.21
2022-08-05T01:28:50.645Z,21.14
2022-08-05T01:31:28.265Z,21.06
2022-08-05T01:34:03.087Z,20.99
2022-08-05T01:36:42.292Z,21.11
2022-08-05T01:39:47.252Z,21.10
2022-08-05T01:42:15.323Z,20.95
2022-08-05T01:44:54.309Z,20.87
2022-08-05T01:47:38.785Z,20.84
2022-08-05T01:50:16.046Z,20.84
2022-08-05T01:52:49.939Z,20.87
2022-08-05T01:55:25.566Z,20.77
2022-08-05T01:58:29.824Z,20.61
2022-08-05T02:00:57.844Z,20.75
2022-08-05T02:03:34.196Z,20.74
2022-08-05T02:06:24.255Z,20.73
2022-08-05T02:08:59.696Z,20.82
2022-08-05T02:11:37.504Z,20.83
2022-08-05T02:14:17.100Z,20.68
2022-08-05T02:16:55.203Z,20.63
2022-08-05T02:19:33.469Z,20.56
2022-08-05T02:22:25.709Z,20.61
2022-08-05T02:25:06.492Z,20.66
2022-08-05T02:27:59.645Z,20.62
2022-08-05T02:30:51.658Z,20.66
2022-08-05T02:33:36.233Z,20.56
2022-08-05T02:36:15.592Z,20.60
2022-08-05T02:38:53.201Z,20.72
2022-08-05T02:41:43.039Z,20.77
2022-08-05T02:44:27.293Z,20.59
2022-08-05T02:47:01.077Z,20.58
2022-08-05T02:49:40.668Z,20.44
2022-08-05T02:52:29.952Z,20.55
2022-08-05T02:55:05.053Z,20.52
2022-08-05T02:58:10.177Z,20.47
2022-08-05T03:00:30.901Z,20.47
2022-08-05T03:03:10.374Z,20.33
2022-08-05T03:06:55.816Z,20.43
2022-08-05T03:08:35.534Z,20.25
2022-08-05T03:11:56.973Z,20.24
2022-08-05T03:14:09.397Z,20.45
2022-08-05T03:16:45.361Z,20.45
2022-08-05T03:19:33.980Z,20.48
2022-08-05T03:22:15.998Z,20.48
2022-08-05T03:24:52.518Z,20.37
2022-08-05T03:27:29.726Z,20.54
2022-08-05T03:30:18.326Z,20.47
2022-08-05T03:32:51.384Z,20.50
2022-08-05T03:35:23.535Z,20.61
2022-08-05T03:37:59.810Z,20.61
2022-08-05T03:40:32.407Z,20.72
2022-08-05T03:43:58.840Z,20.61
2022-08-05T03:46:00.302Z,20.77
2022-08-05T03:48:36.806Z,20.49
2022-08-05T03:52:38.009Z,20.49
2022-08-05T03:55:50.588Z,20.53
2022-08-05T03:57:16.695Z,20.65
2022-08-05T03:59:57.534Z,20.76
2022-08-05T04:02:38.245Z,20.80
2022-08-05T04:05:12.334Z,20.74
2022-08-05T04:07:57.301Z,20.77
2022-08-05T04:10:38.147Z,20.74
2022-08-05T04:13:09.355Z,20.78
2022-08-05T04:16:02.889Z,20.78
2022-08-05T04:18:39.156Z,20.79
2022-08-05T04:21:10.871Z,20.77
2022-08-05T04:26:40.814Z,20.82
2022-08-05T04:29:14.746Z,20.92
2022-08-05T04:34:32.284Z,20.92
2022-08-05T04:37:03.565Z,21.13
2022-08-05T04:39:35.450Z,21.12
2022-08-05T04:42:16.241Z,21.19
2022-08-05T04:44:47.781Z,21.30
2022-08-05T04:47:20.016Z,21.31
2022-08-05T04:50:02.960Z,21.56
2022-08-05T04:52:41.528Z,21.65
2022-08-05T04:55:15.440Z,21.75
2022-08-05T04:57:57.368Z,21.88
2022-08-05T05:00:29.676Z,21.92
2022-08-05T05:03:03.928Z,22.05
2022-08-05T05:06:39.850Z,22.22
2022-08-05T05:08:30.465Z,22.39
2022-08-05T05:11:04.220Z,22.57
2022-08-05T05:13:42.956Z,22.70
2022-08-05T05:16:19.797Z,22.83
2022-08-05T05:19:09.190Z,22.85
2022-08-05T05:21:41.120Z,23.02
2022-08-05T05:24:11.572Z,23.17
2022-08-05T05:26:43.209Z,23.26
2022-08-05T05:29:19.449Z,23.36
2022-08-05T05:31:52.120Z,23.47
2022-08-05T05:34:26.605Z,23.59
2022-08-05T05:36:57.204Z,23.74
2022-08-05T05:39:34.388Z,23.88
2022-08-05T05:42:07.346Z,23.87
2022-08-05T05:44:46.058Z,23.88
2022-08-05T05:47:22.002Z,23.96
2022-08-05T05:49:56.744Z,23.89
2022-08-05T05:52:28.433Z,23.90
2022-08-05T05:55:07.378Z,23.97
2022-08-05T05:57:52.862Z,24.20
2022-08-05T06:00:31.465Z,24.33
2022-08-05T06:03:28.281Z,24.37
2022-08-05T06:05:55.538Z,24.53
2022-08-05T06:08:31.624Z,24.57
2022-08-05T06:11:04.082Z,24.67
2022-08-05T06:13:40.870Z,24.78
2022-08-05T06:16:28.742Z,24.95
2022-08-05T06:19:05.947Z,25.05
2022-08-05T06:21:41.749Z,25.14
2022-08-05T06:24:25.786Z,25.18
2022-08-05T06:26:57.730Z,25.23
2022-08-05T06:29:46.437Z,25.31
2022-08-05T06:32:26.358Z,25.33
2022-08-05T06:35:05.831Z,25.47
2022-08-05T06:37:56.225Z,25.59
2022-08-05T06:40:32.385Z,25.68
2022-08-05T06:43:02.565Z,25.67
2022-08-05T06:45:44.429Z,25.75
2022-08-05T06:48:53.574Z,25.94
2022-08-05T06:51:22.810Z,26.00
2022-08-05T06:54:01.891Z,26.00
2022-08-05T06:56:36.332Z,26.04
2022-08-05T06:59:09.594Z,26.20
2022-08-05T07:01:44.867Z,26.24
2022-08-05T07:04:20.027Z,26.32
2022-08-05T07:06:53.144Z,26.38
2022-08-05T07:09:24.928Z,26.49
2022-08-05T07:11:56.611Z,26.58
2022-08-05T07:14:49.735Z,26.56
2022-08-05T07:18:08.337Z,26.63
2022-08-05T07:20:32.827Z,26.69
2022-08-05T07:23:25.945Z,26.86
2022-08-05T07:26:00.966Z,26.96
2022-08-05T07:28:33.902Z,26.99
2022-08-05T07:31:04.619Z,27.11
2022-08-05T07:33:37.358Z,27.17
2022-08-05T07:36:21.524Z,27.22
2022-08-05T07:38:55.005Z,27.26
2022-08-05T07:42:12.976Z,27.27
2022-08-05T07:44:19.722Z,27.34
2022-08-05T07:46:50.897Z,27.39
2022-08-05T07:49:22.000Z,27.42
2022-08-05T07:51:55.359Z,27.47
2022-08-05T07:54:31.537Z,27.56
2022-08-05T07:57:16.927Z,27.58
2022-08-05T07:59:56.462Z,27.57
2022-08-05T08:02:30.868Z,27.57
2022-08-05T08:05:02.115Z,27.69
2022-08-05T08:07:39.601Z,27.74
2022-08-05T08:10:26.985Z,27.79
2022-08-05T08:12:58.558Z,27.77
2022-08-05T08:16:33.619Z,27.90
2022-08-05T08:18:21.266Z,28.11
2022-08-05T08:21:03.134Z,28.09
2022-08-05T08:24:02.442Z,28.09
2022-08-05T08:26:29.779Z,28.20
2022-08-05T08:29:21.780Z,28.25
2022-08-05T08:31:53.177Z,28.34
2022-08-05T08:34:30.557Z,28.38
2022-08-05T08:37:05.022Z,28.45
2022-08-05T08:39:44.240Z,28.47
2022-08-05T08:42:34.466Z,28.45
2022-08-05T08:45:26.562Z,28.56
2022-08-05T08:48:10.705Z,28.62
2022-08-05T08:51:22.405Z,28.58
2022-08-05T08:53:47.125Z,28.62
2022-08-05T08:56:22.280Z,28.79
2022-08-05T08:58:54.239Z,28.84
2022-08-05T09:01:24.691Z,28.79
2022-08-05T09:04:00.340Z,28.84
2022-08-05T09:06:32.677Z,29.03
2022-08-05T09:09:07.260Z,28.85
2022-08-05T09:11:51.525Z,28.91
2022-08-05T09:14:58.769Z,29.01
2022-08-05T09:17:40.737Z,28.78
2022-08-05T09:20:36.709Z,28.62
2022-08-05T09:23:09.577Z,28.68
2022-08-05T09:26:02.122Z,28.71
2022-08-05T09:28:35.193Z,28.86
2022-08-05T09:31:22.890Z,28.87
2022-08-05T09:34:01.790Z,28.64
2022-08-05T09:36:54.096Z,28.75
2022-08-05T09:39:45.908Z,28.83
2022-08-05T09:42:23.920Z,28.81
2022-08-05T09:46:05.155Z,28.85
2022-08-05T09:48:00.740Z,28.74
2022-08-05T09:50:44.585Z,28.68
2022-08-05T09:53:25.794Z,28.67
2022-08-05T09:56:13.275Z,28.75
2022-08-05T09:58:43.809Z,28.83
2022-08-05T10:01:32.440Z,28.80
2022-08-05T10:04:10.243Z,29.04
2022-08-05T10:06:59.454Z,29.09
2022-08-05T10:09:45.246Z,29.25
2022-08-05T10:12:30.562Z,29.33
2022-08-05T10:15:16.952Z,29.56
2022-08-05T10:18:22.566Z,29.62
2022-08-05T10:20:54.789Z,29.88
2022-08-05T10:23:55.450Z,29.58
2022-08-05T10:26:17.250Z,29.96
2022-08-05T10:28:51.565Z,29.90
2022-08-05T10:32:53.400Z,29.88
2022-08-05T10:34:25.857Z,30.06
2022-08-05T10:37:02.817Z,30.10
2022-08-05T10:40:03.116Z,29.95
2022-08-05T10:42:33.673Z,29.80
2022-08-05T10:45:21.076Z,29.54
2022-08-05T10:48:30.230Z,29.52
2022-08-05T10:51:21.649Z,29.58
2022-08-05T10:54:02.013Z,29.65
2022-08-05T10:56:53.155Z,29.87
2022-08-05T11:00:02.841Z,30.07
2022-08-05T11:02:37.586Z,29.93
2022-08-05T11:05:12.020Z,29.53
2022-08-05T11:08:03.089Z,30.14
2022-08-05T11:10:50.253Z,30.13
2022-08-05T11:13:59.369Z,30.14
2022-08-05T11:16:47.764Z,29.82
2022-08-05T11:20:10.665Z,29.94
2022-08-05T11:22:42.376Z,30.10
2022-08-05T11:26:04.518Z,30.02
2022-08-05T11:28:43.167Z,30.15
2022-08-05T11:31:57.115Z,30.03
2022-08-05T11:34:36.672Z,30.12
2022-08-05T11:38:28.778Z,30.21
2022-08-05T11:40:02.660Z,30.35
2022-08-05T11:42:37.825Z,30.26
2022-08-05T11:45:14.376Z,30.48
2022-08-05T11:48:00.746Z,30.18
2022-08-05T11:50:38.472Z,29.89
2022-08-05T11:53:09.809Z,30.16
2022-08-05T11:55:54.515Z,30.24
2022-08-05T11:58:35.084Z,30.01
2022-08-05T12:01:08.530Z,30.30
2022-08-05T12:03:55.763Z,30.30
2022-08-05T12:06:29.552Z,30.26
2022-08-05T12:09:00.976Z,30.66
2022-08-05T12:11:39.772Z,30.45
2022-08-05T12:18:00.702Z,30.80
2022-08-05T12:20:25.655Z,30.85
2022-08-05T12:23:10.341Z,30.79
2022-08-05T12:25:57.106Z,30.67
2022-08-05T12:28:34.614Z,30.68
2022-08-05T12:31:07.022Z,30.72
2022-08-05T12:33:39.057Z,30.80
2022-08-05T12:36:13.511Z,30.77
2022-08-05T12:38:46.389Z,30.69
2022-08-05T12:41:17.283Z,30.63
2022-08-05T12:43:53.808Z,30.87
2022-08-05T12:46:29.011Z,30.94
2022-08-05T12:49:13.086Z,30.95
2022-08-05T12:52:12.955Z,31.10
2022-08-05T12:54:38.430Z,31.07
2022-08-05T12:57:10.772Z,30.89
2022-08-05T13:01:56.894Z,30.82
2022-08-05T13:02:40.116Z,30.67
2022-08-05T13:05:14.546Z,30.78
2022-08-05T13:07:59.133Z,30.61
2022-08-05T13:10:33.491Z,30.71
2022-08-05T13:13:08.864Z,30.78
2022-08-05T13:15:50.830Z,30.81
2022-08-05T13:18:21.317Z,30.72
2022-08-05T13:20:55.398Z,30.62
2022-08-05T13:23:26.937Z,30.58
2022-08-05T13:25:59.228Z,30.53
2022-08-05T13:28:32.276Z,30.55
2022-08-05T13:31:11.231Z,30.53
2022-08-05T13:34:21.872Z,30.73
2022-08-05T13:36:36.660Z,30.78
2022-08-05T13:40:13.099Z,30.94
2022-08-05T13:41:58.301Z,30.90
2022-08-05T13:44:29.319Z,30.88
2022-08-05T13:47:02.456Z,30.93
2022-08-05T13:49:38.477Z,30.86
2022-08-05T13:52:19.471Z,30.80
2022-08-05T13:54:59.717Z,30.65
2022-08-05T13:57:50.988Z,30.47
2022-08-05T14:00:26.894Z,30.61
2022-08-05T14:02:58.224Z,30.49
2022-08-05T14:06:24.661Z,30.62
2022-08-05T14:08:27.671Z,31.07
2022-08-05T14:11:03.088Z,30.87
2022-08-05T14:13:48.704Z,30.62
2022-08-05T14:16:25.414Z,30.75
2022-08-05T14:18:55.339Z,30.69
2022-08-05T14:22:08.164Z,30.68
2022-08-05T14:24:19.483Z,30.58
2022-08-05T14:27:02.277Z,30.48
2022-08-05T14:29:40.089Z,30.32
2022-08-05T14:32:15.020Z,30.27
2022-08-05T14:34:46.003Z,30.22
2022-08-05T14:37:17.226Z,30.10
2022-08-05T14:39:50.284Z,30.10
2022-08-05T14:42:26.773Z,30.13
2022-08-05T14:44:56.858Z,30.11
2022-08-05T14:48:03.543Z,30.11
2022-08-05T14:50:19.319Z,29.99
2022-08-05T14:52:53.589Z,30.21
2022-08-05T14:55:38.952Z,30.27
2022-08-05T14:58:13.874Z,30.24
2022-08-05T15:00:58.300Z,30.24
2022-08-05T15:03:33.950Z,30.26
2022-08-05T15:06:15.207Z,30.44
2022-08-05T15:09:01.173Z,30.49
2022-08-05T15:11:51.611Z,30.38
2022-08-05T15:14:35.905Z,30.45
2022-08-05T15:17:44.390Z,30.19
2022-08-05T15:20:01.411Z,30.07
2022-08-05T15:22:31.483Z,30.06
2022-08-05T15:25:13.817Z,29.95
2022-08-05T15:27:52.247Z,29.82
2022-08-05T15:30:23.548Z,29.83
2022-08-05T15:32:55.555Z,29.77
2022-08-05T15:35:27.503Z,29.76
2022-08-05T15:38:33.441Z,29.78
2022-08-05T15:41:04.090Z,29.79
2022-08-05T15:43:47.892Z,29.85
2022-08-05T15:46:18.103Z,29.91
2022-08-05T15:48:53.094Z,30.00
2022-08-05T15:52:12.494Z,30.09
2022-08-05T15:54:21.927Z,30.00
2022-08-05T15:57:07.692Z,29.97
2022-08-05T15:59:39.810Z,30.03
2022-08-05T16:02:14.866Z,30.03
2022-08-05T16:04:50.309Z,30.10
2022-08-05T16:07:21.333Z,30.14
2022-08-05T16:09:52.995Z,29.86
2022-08-05T16:12:24.987Z,29.92
2022-08-05T16:14:57.024Z,29.96
2022-08-05T16:17:26.980Z,29.93
2022-08-05T16:20:05.265Z,29.83
2022-08-05T16:22:42.269Z,29.63
2022-08-05T16:25:13.224Z,29.50
2022-08-05T16:28:00.340Z,29.57
2022-08-05T16:30:36.071Z,29.52
2022-08-05T16:33:06.302Z,29.50
2022-08-05T16:35:42.066Z,29.53
2022-08-05T16:38:18.575Z,29.47
2022-08-05T16:41:00.109Z,29.42
2022-08-05T16:43:32.251Z,29.39
2022-08-05T16:46:13.057Z,29.22
2022-08-05T16:48:55.684Z,29.27
2022-08-05T16:51:30.720Z,29.24
2022-08-05T16:54:05.366Z,29.20
2022-08-05T16:56:44.698Z,29.17
2022-08-05T16:59:16.698Z,29.12
2022-08-05T17:01:53.837Z,29.15
2022-08-05T17:04:28.465Z,29.14
2022-08-05T17:07:01.874Z,29.08
2022-08-05T17:09:57.469Z,29.01
2022-08-05T17:12:51.485Z,28.97
2022-08-05T17:15:15.597Z,28.93
2022-08-05T17:17:55.101Z,28.89
2022-08-05T17:20:26.688Z,28.87
2022-08-05T17:22:57.553Z,28.80
2022-08-05T17:25:39.421Z,28.78
2022-08-05T17:28:10.538Z,28.75
2022-08-05T17:30:52.138Z,28.77
2022-08-05T17:33:23.761Z,28.74
2022-08-05T17:36:08.623Z,28.73
2022-08-05T17:38:44.321Z,28.70
2022-08-05T17:42:17.396Z,28.68
2022-08-05T17:44:06.581Z,28.63
2022-08-05T17:46:41.104Z,28.57
2022-08-05T17:49:14.890Z,28.54
2022-08-05T17:51:44.908Z,28.52
2022-08-05T17:54:17.381Z,28.49
2022-08-05T17:56:55.487Z,28.47
2022-08-05T17:59:28.592Z,28.44
2022-08-05T18:01:58.840Z,28.35
2022-08-05T18:04:31.947Z,28.37
2022-08-05T18:07:02.864Z,28.29
2022-08-05T18:09:59.543Z,28.32
2022-08-05T18:12:24.471Z,28.33
2022-08-05T18:14:56.068Z,28.28
2022-08-05T18:18:00.440Z,28.26
2022-08-05T18:20:19.689Z,28.16
2022-08-05T18:23:00.739Z,28.19
2022-08-05T18:25:45.000Z,28.13
2022-08-05T18:28:17.639Z,28.12
2022-08-05T18:30:52.501Z,28.14
2022-08-05T18:33:24.181Z,28.13
2022-08-05T18:36:03.983Z,28.10
2022-08-05T18:38:36.336Z,28.07
2022-08-05T18:41:56.634Z,28.05
2022-08-05T18:43:57.542Z,27.97
2022-08-05T18:46:36.338Z,27.96
2022-08-05T18:49:20.937Z,27.96
2022-08-05T18:52:10.961Z,27.87
2022-08-05T18:54:41.194Z,27.71
2022-08-05T18:57:17.987Z,27.86
2022-08-05T19:00:02.524Z,27.80
2022-08-05T19:02:34.047Z,27.76
2022-08-05T19:06:06.982Z,27.71
2022-08-05T19:07:58.242Z,27.68
2022-08-05T19:10:30.365Z,27.59
2022-08-05T19:13:00.997Z,27.63
2022-08-05T19:15:58.229Z,27.61
2022-08-05T19:18:24.313Z,27.56
2022-08-05T19:20:54.266Z,27.49
2022-08-05T19:24:06.562Z,27.41
2022-08-05T19:26:16.870Z,27.40
2022-08-05T19:28:47.720Z,27.37
2022-08-05T19:31:21.411Z,27.36
2022-08-05T19:33:56.928Z,27.36
2022-08-05T19:36:29.147Z,27.34
2022-08-05T19:39:02.247Z,27.33
2022-08-05T19:42:05.690Z,27.24
2022-08-05T19:44:24.700Z,27.22
2022-08-05T19:46:59.635Z,27.19
2022-08-05T19:49:29.959Z,27.14
2022-08-05T19:52:08.545Z,27.08
2022-08-05T19:54:52.407Z,26.99
2022-08-05T19:57:46.322Z,26.90
2022-08-05T20:00:13.479Z,26.88
2022-08-05T20:02:44.058Z,26.87
2022-08-05T20:05:24.398Z,26.76
2022-08-05T20:07:58.887Z,26.74
2022-08-05T20:10:30.910Z,26.74
2022-08-05T20:13:03.352Z,26.69
2022-08-05T20:15:52.134Z,26.68
2022-08-05T20:18:33.681Z,26.65
2022-08-05T20:21:07.022Z,26.57
2022-08-05T20:23:40.686Z,26.61
2022-08-05T20:26:23.329Z,26.51
2022-08-05T20:28:56.212Z,26.53
2022-08-05T20:31:42.727Z,26.51
2022-08-05T20:34:18.727Z,26.47
2022-08-05T20:36:50.074Z,26.44
2022-08-05T20:39:20.020Z,26.39
2022-08-05T20:41:51.277Z,26.35
2022-08-05T20:44:30.697Z,26.35
2022-08-05T20:47:03.555Z,26.32
2022-08-05T20:49:39.569Z,26.28
2022-08-05T20:52:10.760Z,26.18
2022-08-05T20:54:59.532Z,26.19
2022-08-05T20:57:43.439Z,26.16
2022-08-05T21:00:41.339Z,26.20
2022-08-05T21:03:08.361Z,25.94
2022-08-05T21:05:53.505Z,26.14
2022-08-05T21:08:26.860Z,26.08
2022-08-05T21:11:09.095Z,26.14
2022-08-05T21:13:47.431Z,26.13
2022-08-05T21:16:29.509Z,26.13
2022-08-05T21:19:02.234Z,25.94
2022-08-05T21:21:39.654Z,25.72
2022-08-05T21:24:20.491Z,25.73
2022-08-05T21:26:53.452Z,25.72
2022-08-05T21:29:31.397Z,25.65
2022-08-05T21:32:03.577Z,25.59
2022-08-05T21:34:35.513Z,25.45
2022-08-05T21:37:08.094Z,25.48
2022-08-05T21:39:38.431Z,25.45
2022-08-05T21:42:19.731Z,25.29
2022-08-05T21:45:02.611Z,25.43
2022-08-05T21:47:56.432Z,25.38
2022-08-05T21:50:23.686Z,25.43
2022-08-05T21:52:53.598Z,25.41
2022-08-05T21:56:01.645Z,25.31
2022-08-05T21:58:19.750Z,25.23
2022-08-05T22:00:51.758Z,25.21
2022-08-05T22:03:51.872Z,25.14
2022-08-05T22:06:12.341Z,25.07
2022-08-05T22:08:42.715Z,25.07
2022-08-05T22:11:15.498Z,25.09
2022-08-05T22:14:33.883Z,24.95
2022-08-05T22:16:41.693Z,25.04
2022-08-05T22:20:00.579Z,24.99
2022-08-05T22:22:10.802Z,24.94
2022-08-05T22:24:59.459Z,24.95
2022-08-05T22:28:09.595Z,24.85
2022-08-05T22:30:37.518Z,24.82
2022-08-05T22:33:56.996Z,24.89
2022-08-05T22:36:16.955Z,24.81
2022-08-05T22:38:48.652Z,24.87
2022-08-05T22:41:26.453Z,24.88
2022-08-05T22:44:09.740Z,24.85
2022-08-05T22:46:42.316Z,24.74
2022-08-05T22:50:16.343Z,24.84
2022-08-05T22:52:15.487Z,24.76
2022-08-05T22:54:56.889Z,24.75
2022-08-05T22:57:26.926Z,24.63
2022-08-05T23:00:05.383Z,24.63
2022-08-05T23:02:39.963Z,24.54
2022-08-05T23:05:18.940Z,24.56
2022-08-05T23:07:52.739Z,24.72
2022-08-05T23:10:24.283Z,24.62
2022-08-05T23:12:56.021Z,24.41
2022-08-05T23:15:29.650Z,24.49
2022-08-05T23:18:06.025Z,24.48
2022-08-05T23:20:47.253Z,24.33
2022-08-05T23:23:19.261Z,24.05
2022-08-05T23:25:52.619Z,24.13
2022-08-05T23:28:27.750Z,24.04
2022-08-05T23:31:16.683Z,24.07
2022-08-05T23:34:04.518Z,24.02
2022-08-05T23:36:41.549Z,23.97
2022-08-05T23:39:17.430Z,23.92
2022-08-05T23:41:56.469Z,23.95
2022-08-05T23:44:27.993Z,23.83
2022-08-05T23:47:02.432Z,23.67
2022-08-05T23:49:45.553Z,23.64
2022-08-05T23:52:30.538Z,23.67
2022-08-05T23:55:02.607Z,23.57
2022-08-05T23:57:36.658Z,23.49
